QFA2071 YCFS-YSSY
Flight info
| Callsign | QFA2071 |
|---|---|
| Flight time | 0h 44m |
| Altitude | 32000 |
| Route | BANDA J70 IGDAM H652 BOREE |
| Aircraft | A21N/M-SDE2E3FGHIRWXY/LB1 |
Departure
| Time | 2026-05-09 07:27 |
|---|---|
| Airport | Coffs Harbour Airport (YCFS) |
Arrival
| Time | 2026-05-09 08:11 |
|---|---|
| Airport | Sydney Kingsford Smith International Airport (YSSY) |
| Time | Latitude | Longitude | Altitude | Speed | Heading |
|---|---|---|---|---|---|
| 2026-05-09 07:14 | -30.32315 | 153.11635 | 28 ft | 0 kts | 340° |
| 2026-05-09 07:19 | -30.32320 | 153.11637 | 28 ft | 0 kts | 340° |
| 2026-05-09 07:23 | -30.32319 | 153.11637 | 28 ft | 1 kts | 346° |
| 2026-05-09 07:23 | -30.32309 | 153.11645 | 28 ft | 3 kts | 49° |
| 2026-05-09 07:23 | -30.32322 | 153.11667 | 28 ft | 6 kts | 155° |
| 2026-05-09 07:24 | -30.32363 | 153.11691 | 28 ft | 7 kts | 149° |
| 2026-05-09 07:24 | -30.32396 | 153.11731 | 29 ft | 7 kts | 129° |
| 2026-05-09 07:24 | -30.32432 | 153.11781 | 30 ft | 9 kts | 130° |
| 2026-05-09 07:24 | -30.32480 | 153.11846 | 28 ft | 13 kts | 131° |
| 2026-05-09 07:25 | -30.32547 | 153.11916 | 27 ft | 12 kts | 163° |
| 2026-05-09 07:25 | -30.32577 | 153.11902 | 27 ft | 0 kts | 224° |
| 2026-05-09 07:26 | -30.32578 | 153.11900 | 27 ft | 3 kts | 224° |
| 2026-05-09 07:26 | -30.32838 | 153.11644 | 22 ft | 100 kts | 220° |
| 2026-05-09 07:26 | -30.33612 | 153.10880 | 203 ft | 177 kts | 220° |
| 2026-05-09 07:27 | -30.34580 | 153.09928 | 1131 ft | 187 kts | 220° |
| 2026-05-09 07:27 | -30.35570 | 153.08931 | 2268 ft | 193 kts | 220° |
| 2026-05-09 07:27 | -30.36610 | 153.07796 | 2928 ft | 216 kts | 223° |
| 2026-05-09 07:27 | -30.37730 | 153.06494 | 3625 ft | 237 kts | 224° |
| 2026-05-09 07:28 | -30.38895 | 153.05109 | 4630 ft | 242 kts | 225° |
| 2026-05-09 07:28 | -30.40080 | 153.03696 | 5728 ft | 246 kts | 226° |
| 2026-05-09 07:28 | -30.41309 | 153.02242 | 6728 ft | 260 kts | 225° |
| 2026-05-09 07:28 | -30.42599 | 153.00730 | 7827 ft | 267 kts | 225° |
| 2026-05-09 07:29 | -30.43919 | 152.99194 | 9049 ft | 271 kts | 224° |
| 2026-05-09 07:29 | -30.45262 | 152.97639 | 10248 ft | 275 kts | 224° |
| 2026-05-09 07:29 | -30.46636 | 152.96054 | 11240 ft | 284 kts | 224° |
| 2026-05-09 07:29 | -30.48087 | 152.94381 | 11890 ft | 307 kts | 225° |
| 2026-05-09 07:30 | -30.49654 | 152.92574 | 12198 ft | 325 kts | 225° |
| 2026-05-09 07:30 | -30.51271 | 152.90705 | 12264 ft | 329 kts | 225° |
| 2026-05-09 07:30 | -30.52896 | 152.88824 | 12269 ft | 330 kts | 225° |
| 2026-05-09 07:30 | -30.54503 | 152.86963 | 12274 ft | 330 kts | 225° |
| 2026-05-09 07:31 | -30.56133 | 152.85073 | 12272 ft | 330 kts | 225° |
| 2026-05-09 07:31 | -30.57759 | 152.83187 | 12274 ft | 330 kts | 225° |
| 2026-05-09 07:31 | -30.59385 | 152.81302 | 12273 ft | 331 kts | 225° |
| 2026-05-09 07:31 | -30.61023 | 152.79400 | 12487 ft | 337 kts | 225° |
| 2026-05-09 07:32 | -30.62697 | 152.77456 | 13378 ft | 342 kts | 225° |
| 2026-05-09 07:32 | -30.64385 | 152.75495 | 14538 ft | 343 kts | 226° |
| 2026-05-09 07:32 | -30.66076 | 152.73529 | 15530 ft | 345 kts | 226° |
| 2026-05-09 07:32 | -30.67780 | 152.71547 | 16517 ft | 348 kts | 226° |
| 2026-05-09 07:33 | -30.69500 | 152.69545 | 17460 ft | 352 kts | 226° |
| 2026-05-09 07:33 | -30.72986 | 152.65484 | 19188 ft | 362 kts | 226° |
| 2026-05-09 07:33 | -30.74775 | 152.63399 | 19945 ft | 367 kts | 226° |
| 2026-05-09 07:34 | -30.76589 | 152.61284 | 20702 ft | 371 kts | 226° |
| 2026-05-09 07:34 | -30.78426 | 152.59140 | 21461 ft | 376 kts | 226° |
| 2026-05-09 07:34 | -30.80286 | 152.56975 | 22210 ft | 381 kts | 225° |
| 2026-05-09 07:34 | -30.82182 | 152.54795 | 22961 ft | 385 kts | 225° |
| 2026-05-09 07:35 | -30.84105 | 152.52599 | 23682 ft | 390 kts | 225° |
| 2026-05-09 07:35 | -30.86057 | 152.50374 | 24318 ft | 394 kts | 225° |
| 2026-05-09 07:35 | -30.88028 | 152.48129 | 24881 ft | 398 kts | 225° |
| 2026-05-09 07:35 | -30.90012 | 152.45867 | 25484 ft | 401 kts | 225° |
| 2026-05-09 07:36 | -30.91985 | 152.43616 | 26079 ft | 403 kts | 225° |
| 2026-05-09 07:36 | -30.93990 | 152.41325 | 26654 ft | 405 kts | 225° |
| 2026-05-09 07:36 | -30.96007 | 152.39016 | 27206 ft | 408 kts | 226° |
| 2026-05-09 07:36 | -30.98037 | 152.36691 | 27741 ft | 410 kts | 226° |
| 2026-05-09 07:37 | -31.00079 | 152.34349 | 28258 ft | 413 kts | 226° |
| 2026-05-09 07:37 | -31.02137 | 152.31989 | 28763 ft | 415 kts | 226° |
| 2026-05-09 07:37 | -31.04205 | 152.29613 | 29257 ft | 418 kts | 226° |
| 2026-05-09 07:37 | -31.06285 | 152.27223 | 29717 ft | 421 kts | 226° |
| 2026-05-09 07:38 | -31.08383 | 152.24812 | 30167 ft | 424 kts | 226° |
| 2026-05-09 07:38 | -31.10495 | 152.22383 | 30587 ft | 426 kts | 226° |
| 2026-05-09 07:38 | -31.12587 | 152.19976 | 30989 ft | 428 kts | 226° |
| 2026-05-09 07:38 | -31.14713 | 152.17528 | 31377 ft | 430 kts | 226° |
| 2026-05-09 07:39 | -31.16844 | 152.15072 | 31765 ft | 431 kts | 226° |
| 2026-05-09 07:39 | -31.18981 | 152.12608 | 32159 ft | 431 kts | 226° |
| 2026-05-09 07:39 | -31.21114 | 152.10148 | 32283 ft | 432 kts | 226° |
| 2026-05-09 07:40 | -31.25490 | 152.05088 | 32292 ft | 452 kts | 226° |
| 2026-05-09 07:40 | -31.29986 | 151.99885 | 32293 ft | 456 kts | 226° |
| 2026-05-09 07:41 | -31.34496 | 151.94666 | 32289 ft | 456 kts | 226° |
| 2026-05-09 07:41 | -31.38982 | 151.89466 | 32292 ft | 456 kts | 226° |
| 2026-05-09 07:42 | -31.43656 | 151.84458 | 32293 ft | 456 kts | 220° |
| 2026-05-09 07:42 | -31.48764 | 151.79966 | 32294 ft | 460 kts | 217° |
| 2026-05-09 07:43 | -31.53975 | 151.75581 | 32291 ft | 460 kts | 217° |
| 2026-05-09 07:43 | -31.59120 | 151.71189 | 32291 ft | 460 kts | 218° |
| 2026-05-09 07:44 | -31.64275 | 151.66720 | 32301 ft | 460 kts | 218° |
| 2026-05-09 07:44 | -31.69439 | 151.62212 | 32292 ft | 463 kts | 218° |
| 2026-05-09 07:45 | -31.74604 | 151.57700 | 32294 ft | 463 kts | 218° |
| 2026-05-09 07:45 | -31.79775 | 151.53180 | 32294 ft | 463 kts | 218° |
| 2026-05-09 07:46 | -31.84904 | 151.48688 | 32298 ft | 463 kts | 217° |
| 2026-05-09 07:46 | -31.90090 | 151.44139 | 32298 ft | 465 kts | 217° |
| 2026-05-09 07:47 | -31.95287 | 151.39576 | 32297 ft | 466 kts | 217° |
| 2026-05-09 07:47 | -32.00483 | 151.35008 | 32298 ft | 466 kts | 217° |
| 2026-05-09 07:48 | -32.05682 | 151.30433 | 32295 ft | 466 kts | 217° |
| 2026-05-09 07:48 | -32.10880 | 151.25846 | 32294 ft | 467 kts | 217° |
| 2026-05-09 07:49 | -32.16060 | 151.21270 | 32289 ft | 467 kts | 217° |
| 2026-05-09 07:49 | -32.21260 | 151.16671 | 32290 ft | 467 kts | 217° |
| 2026-05-09 07:50 | -32.26463 | 151.12059 | 32292 ft | 468 kts | 217° |
| 2026-05-09 07:50 | -32.31723 | 151.07515 | 32289 ft | 468 kts | 212° |
| 2026-05-09 07:50 | -32.34564 | 151.05664 | 32064 ft | 462 kts | 205° |
| 2026-05-09 07:51 | -32.37548 | 151.04328 | 31237 ft | 459 kts | 195° |
| 2026-05-09 07:51 | -32.40677 | 151.03611 | 30343 ft | 458 kts | 185° |
| 2026-05-09 07:51 | -32.43855 | 151.03471 | 29421 ft | 455 kts | 180° |
| 2026-05-09 07:51 | -32.47009 | 151.03504 | 28566 ft | 451 kts | 179° |
| 2026-05-09 07:52 | -32.50095 | 151.03558 | 27766 ft | 446 kts | 179° |
| 2026-05-09 07:52 | -32.53187 | 151.03608 | 26980 ft | 442 kts | 179° |
| 2026-05-09 07:52 | -32.56253 | 151.03652 | 26215 ft | 438 kts | 179° |
| 2026-05-09 07:52 | -32.59292 | 151.03690 | 25474 ft | 435 kts | 179° |
| 2026-05-09 07:53 | -32.62302 | 151.03726 | 24742 ft | 431 kts | 179° |
| 2026-05-09 07:53 | -32.65294 | 151.03761 | 24067 ft | 427 kts | 179° |
| 2026-05-09 07:53 | -32.68249 | 151.03794 | 23313 ft | 423 kts | 180° |
| 2026-05-09 07:53 | -32.71171 | 151.03826 | 22636 ft | 416 kts | 180° |
| 2026-05-09 07:54 | -32.74045 | 151.03858 | 21887 ft | 410 kts | 180° |
| 2026-05-09 07:54 | -32.76869 | 151.03889 | 20607 ft | 411 kts | 180° |
| 2026-05-09 07:54 | -32.79768 | 151.03920 | 19436 ft | 418 kts | 180° |
| 2026-05-09 07:54 | -32.82648 | 151.03952 | 18815 ft | 408 kts | 180° |
| 2026-05-09 07:55 | -32.85491 | 151.03983 | 17643 ft | 410 kts | 180° |
| 2026-05-09 07:55 | -32.88363 | 151.04013 | 16367 ft | 414 kts | 180° |
| 2026-05-09 07:55 | -32.91237 | 151.04044 | 15363 ft | 411 kts | 180° |
| 2026-05-09 07:55 | -32.94079 | 151.04075 | 14470 ft | 404 kts | 180° |
| 2026-05-09 07:56 | -32.96868 | 151.04106 | 13549 ft | 397 kts | 180° |
| 2026-05-09 07:56 | -32.99612 | 151.04136 | 12530 ft | 392 kts | 180° |
| 2026-05-09 07:56 | -33.02331 | 151.04166 | 11534 ft | 388 kts | 180° |
| 2026-05-09 07:56 | -33.05022 | 151.04195 | 10718 ft | 385 kts | 180° |
| 2026-05-09 07:57 | -33.07698 | 151.04224 | 10219 ft | 381 kts | 180° |
| 2026-05-09 07:57 | -33.10267 | 151.04267 | 10038 ft | 354 kts | 178° |
| 2026-05-09 07:57 | -33.12602 | 151.04333 | 10008 ft | 327 kts | 180° |
| 2026-05-09 07:57 | -33.14793 | 151.04343 | 10005 ft | 302 kts | 180° |
| 2026-05-09 07:58 | -33.16827 | 151.04350 | 10016 ft | 286 kts | 180° |
| 2026-05-09 07:58 | -33.18800 | 151.04361 | 10005 ft | 283 kts | 180° |
| 2026-05-09 07:58 | -33.20767 | 151.04376 | 10003 ft | 282 kts | 180° |
| 2026-05-09 07:58 | -33.22732 | 151.04394 | 10004 ft | 282 kts | 180° |
| 2026-05-09 07:59 | -33.24699 | 151.04578 | 10001 ft | 283 kts | 173° |
| 2026-05-09 07:59 | -33.26646 | 151.04929 | 10005 ft | 283 kts | 172° |
| 2026-05-09 07:59 | -33.28587 | 151.05307 | 10003 ft | 283 kts | 172° |
| 2026-05-09 07:59 | -33.30528 | 151.05688 | 10003 ft | 283 kts | 172° |
| 2026-05-09 08:00 | -33.32472 | 151.06066 | 10006 ft | 283 kts | 172° |
| 2026-05-09 08:00 | -33.34390 | 151.06438 | 10006 ft | 283 kts | 172° |
| 2026-05-09 08:00 | -33.36329 | 151.06812 | 9869 ft | 280 kts | 172° |
| 2026-05-09 08:00 | -33.38250 | 151.07182 | 9324 ft | 279 kts | 172° |
| 2026-05-09 08:01 | -33.40172 | 151.07551 | 8739 ft | 279 kts | 172° |
| 2026-05-09 08:01 | -33.42090 | 151.07919 | 8193 ft | 278 kts | 171° |
| 2026-05-09 08:01 | -33.43994 | 151.08285 | 7677 ft | 277 kts | 171° |
| 2026-05-09 08:01 | -33.45889 | 151.08647 | 7156 ft | 275 kts | 171° |
| 2026-05-09 08:02 | -33.47775 | 151.09009 | 6667 ft | 273 kts | 171° |
| 2026-05-09 08:02 | -33.49637 | 151.09369 | 6205 ft | 269 kts | 171° |
| 2026-05-09 08:02 | -33.51479 | 151.09725 | 6024 ft | 268 kts | 172° |
| 2026-05-09 08:02 | -33.53322 | 151.10081 | 5997 ft | 269 kts | 172° |
| 2026-05-09 08:03 | -33.55169 | 151.10437 | 6003 ft | 269 kts | 172° |
| 2026-05-09 08:03 | -33.57016 | 151.10793 | 6007 ft | 269 kts | 172° |
| 2026-05-09 08:03 | -33.58861 | 151.11149 | 5851 ft | 267 kts | 172° |
| 2026-05-09 08:03 | -33.60692 | 151.11503 | 5333 ft | 266 kts | 172° |
| 2026-05-09 08:04 | -33.62526 | 151.11743 | 4798 ft | 265 kts | 177° |
| 2026-05-09 08:04 | -33.64310 | 151.11876 | 4556 ft | 253 kts | 178° |
| 2026-05-09 08:04 | -33.66024 | 151.11983 | 4408 ft | 240 kts | 178° |
| 2026-05-09 08:04 | -33.67667 | 151.12078 | 4143 ft | 232 kts | 179° |
| 2026-05-09 08:05 | -33.69266 | 151.12164 | 3744 ft | 229 kts | 180° |
| 2026-05-09 08:05 | -33.70856 | 151.12243 | 3271 ft | 229 kts | 179° |
| 2026-05-09 08:05 | -33.72413 | 151.12287 | 3035 ft | 216 kts | 182° |
| 2026-05-09 08:05 | -33.73835 | 151.12376 | 3030 ft | 193 kts | 173° |
| 2026-05-09 08:06 | -33.75086 | 151.12660 | 3019 ft | 171 kts | 171° |
| 2026-05-09 08:06 | -33.76201 | 151.12946 | 3021 ft | 163 kts | 170° |
| 2026-05-09 08:06 | -33.77317 | 151.13233 | 3002 ft | 165 kts | 169° |
| 2026-05-09 08:06 | -33.78448 | 151.13504 | 2937 ft | 165 kts | 171° |
| 2026-05-09 08:07 | -33.79573 | 151.13758 | 2733 ft | 163 kts | 170° |
| 2026-05-09 08:07 | -33.80675 | 151.14036 | 2491 ft | 157 kts | 169° |
| 2026-05-09 08:07 | -33.81357 | 151.14213 | 2342 ft | 145 kts | 168° |
| 2026-05-09 08:07 | -33.82293 | 151.14454 | 2151 ft | 130 kts | 169° |
| 2026-05-09 08:08 | -33.83129 | 151.14668 | 1984 ft | 118 kts | 168° |
| 2026-05-09 08:08 | -33.83929 | 151.14872 | 1840 ft | 118 kts | 168° |
| 2026-05-09 08:08 | -33.84737 | 151.15079 | 1687 ft | 119 kts | 168° |
| 2026-05-09 08:08 | -33.85552 | 151.15286 | 1512 ft | 120 kts | 167° |
| 2026-05-09 08:09 | -33.86356 | 151.15491 | 1346 ft | 119 kts | 167° |
| 2026-05-09 08:09 | -33.87167 | 151.15698 | 1201 ft | 119 kts | 166° |
| 2026-05-09 08:09 | -33.87981 | 151.15907 | 1029 ft | 119 kts | 168° |
| 2026-05-09 08:09 | -33.88787 | 151.16112 | 876 ft | 118 kts | 168° |
| 2026-05-09 08:10 | -33.89597 | 151.16317 | 690 ft | 119 kts | 167° |
| 2026-05-09 08:10 | -33.90409 | 151.16526 | 567 ft | 119 kts | 168° |
| 2026-05-09 08:10 | -33.91216 | 151.16733 | 411 ft | 118 kts | 167° |
| 2026-05-09 08:10 | -33.92020 | 151.16937 | 262 ft | 116 kts | 169° |
| 2026-05-09 08:11 | -33.92783 | 151.17118 | 85 ft | 108 kts | 168° |
| 2026-05-09 08:11 | -33.93467 | 151.17301 | 19 ft | 87 kts | 167° |
| 2026-05-09 08:11 | -33.93889 | 151.17406 | 21 ft | 43 kts | 168° |
| 2026-05-09 08:11 | -33.94171 | 151.17481 | 27 ft | 39 kts | 168° |
| 2026-05-09 08:12 | -33.94507 | 151.17705 | 27 ft | 7 kts | 134° |
| 2026-05-09 08:12 | -33.94517 | 151.17753 | 26 ft | 0 kts | 76° |
| 2026-05-09 08:12 | -33.94473 | 151.17774 | 26 ft | 17 kts | 5° |
| 2026-05-09 08:13 | -33.94314 | 151.17725 | 26 ft | 27 kts | 346° |
| 2026-05-09 08:13 | -33.94129 | 151.17673 | 29 ft | 28 kts | 347° |
| 2026-05-09 08:13 | -33.93936 | 151.17619 | 22 ft | 29 kts | 347° |
| 2026-05-09 08:13 | -33.93756 | 151.17572 | 21 ft | 27 kts | 348° |
| 2026-05-09 08:14 | -33.93570 | 151.17523 | 20 ft | 28 kts | 348° |
| 2026-05-09 08:14 | -33.93385 | 151.17501 | 27 ft | 26 kts | 349° |
| 2026-05-09 08:14 | -33.93208 | 151.17457 | 28 ft | 26 kts | 347° |
| 2026-05-09 08:14 | -33.93036 | 151.17413 | 26 ft | 18 kts | 349° |
| 2026-05-09 08:15 | -33.92989 | 151.17448 | 30 ft | 6 kts | 76° |
| 2026-05-09 08:15 | -33.92988 | 151.17493 | 33 ft | 7 kts | 95° |
| 2026-05-09 08:15 | -33.92996 | 151.17550 | 33 ft | 9 kts | 100° |
| 2026-05-09 08:15 | -33.93010 | 151.17636 | 33 ft | 12 kts | 102° |
| 2026-05-09 08:16 | -33.93042 | 151.17734 | 34 ft | 14 kts | 116° |
| 2026-05-09 08:16 | -33.93090 | 151.17769 | 34 ft | 4 kts | 209° |
| 2026-05-09 08:16 | -33.93117 | 151.17758 | 34 ft | 6 kts | 191° |
| 2026-05-09 08:16 | -33.93130 | 151.17756 | 33 ft | 0 kts | 189° |